createdAt,value
2023-03-02T00:02:01.401Z,48.72
2023-03-02T00:04:33.679Z,37.35
2023-03-02T00:07:06.517Z,51.40
2023-03-02T00:09:36.309Z,46.55
2023-03-02T00:12:06.127Z,46.80
2023-03-02T00:14:34.700Z,48.28
2023-03-02T00:17:05.533Z,47.20
2023-03-02T00:19:36.825Z,53.38
2023-03-02T00:22:05.104Z,45.35
2023-03-02T00:24:33.305Z,44.80
2023-03-02T00:27:01.619Z,47.53
2023-03-02T00:29:29.764Z,44.38
2023-03-02T00:31:58.119Z,49.15
2023-03-02T00:34:28.190Z,45.05
2023-03-02T00:36:56.614Z,47.00
2023-03-02T00:39:24.751Z,49.90
2023-03-02T00:41:53.141Z,44.33
2023-03-02T00:44:21.173Z,42.33
2023-03-02T00:46:49.848Z,45.55
2023-03-02T00:49:17.935Z,48.35
2023-03-02T00:51:48.552Z,51.80
2023-03-02T00:54:16.636Z,41.65
2023-03-02T00:56:45.309Z,43.33
2023-03-02T00:59:26.490Z,52.03
2023-03-02T01:02:03.199Z,51.08
2023-03-02T01:04:36.094Z,48.25
2023-03-02T01:07:08.807Z,51.10
2023-03-02T01:09:37.431Z,39.67
2023-03-02T01:12:09.415Z,50.40
2023-03-02T01:14:37.846Z,44.28
2023-03-02T01:17:06.387Z,43.38
2023-03-02T01:19:35.143Z,47.65
2023-03-02T01:22:03.736Z,52.78
2023-03-02T01:24:33.945Z,39.83
2023-03-02T01:27:02.108Z,52.55
2023-03-02T01:29:30.300Z,55.55
2023-03-02T01:31:58.647Z,55.05
2023-03-02T01:34:27.153Z,55.13
2023-03-02T01:36:55.195Z,47.47
2023-03-02T01:39:23.725Z,45.42
2023-03-02T01:41:54.988Z,46.53
2023-03-02T01:44:45.704Z,49.85
2023-03-02T01:47:18.452Z,55.30
2023-03-02T01:49:58.210Z,47.20
2023-03-02T01:52:30.358Z,48.95
2023-03-02T01:55:03.195Z,60.90
2023-03-02T01:57:43.880Z,60.03
2023-03-02T02:00:17.492Z,48.38
2023-03-02T02:02:46.125Z,63.28
2023-03-02T02:05:18.896Z,48.08
2023-03-02T02:07:47.566Z,44.63
2023-03-02T02:10:16.834Z,45.88
2023-03-02T02:12:46.533Z,49.42
2023-03-02T02:15:14.605Z,50.80
2023-03-02T02:17:43.385Z,52.65
2023-03-02T02:20:25.610Z,52.17
2023-03-02T02:23:03.663Z,44.13
2023-03-02T02:25:46.248Z,57.47
2023-03-02T02:28:21.066Z,52.08
2023-03-02T02:30:53.348Z,42.00
2023-03-02T02:33:25.655Z,42.13
2023-03-02T02:35:58.535Z,44.80
2023-03-02T02:38:28.237Z,53.03
2023-03-02T02:40:59.936Z,59.03
2023-03-02T02:43:34.071Z,48.08
2023-03-02T02:46:03.477Z,51.42
2023-03-02T02:48:33.154Z,53.13
2023-03-02T02:51:03.128Z,66.72
2023-03-02T02:53:40.229Z,62.38
2023-03-02T02:56:11.454Z,63.22
2023-03-02T02:58:45.451Z,61.28
2023-03-02T03:01:19.133Z,58.78
2023-03-02T03:03:53.056Z,59.58
2023-03-02T03:06:26.732Z,58.22
2023-03-02T03:08:59.274Z,53.67
2023-03-02T03:11:36.254Z,57.60
2023-03-02T03:14:12.534Z,52.42
2023-03-02T03:16:43.533Z,74.25
2023-03-02T03:19:18.330Z,54.70
2023-03-02T03:21:50.156Z,55.00
2023-03-02T03:24:19.138Z,48.30
2023-03-02T03:26:48.823Z,59.97
2023-03-02T03:29:20.101Z,60.13
2023-03-02T03:31:49.414Z,62.78
2023-03-02T03:34:18.371Z,60.55
2023-03-02T03:36:47.888Z,49.42
2023-03-02T03:39:18.096Z,57.58
2023-03-02T03:41:46.600Z,56.10
2023-03-02T03:44:15.073Z,54.42
2023-03-02T03:46:46.447Z,51.75
2023-03-02T03:49:15.466Z,59.97
2023-03-02T03:51:43.789Z,53.70
2023-03-02T03:54:12.633Z,61.63
2023-03-02T03:56:45.046Z,67.45
2023-03-02T03:59:16.771Z,65.78
2023-03-02T04:02:01.345Z,61.83
2023-03-02T04:04:42.025Z,59.33
2023-03-02T04:07:16.833Z,58.78
2023-03-02T04:09:45.965Z,56.90
2023-03-02T04:12:15.710Z,62.95
2023-03-02T04:14:48.531Z,47.85
2023-03-02T04:17:18.881Z,60.00
2023-03-02T04:19:49.904Z,59.45
2023-03-02T04:22:20.182Z,62.22
2023-03-02T04:24:49.537Z,62.80
2023-03-02T04:27:18.658Z,57.72
2023-03-02T04:29:47.402Z,53.17
2023-03-02T04:32:15.813Z,59.95
2023-03-02T04:34:49.146Z,57.30
2023-03-02T04:37:17.755Z,58.10
2023-03-02T04:39:50.210Z,66.03
2023-03-02T04:42:18.729Z,64.65
2023-03-02T04:44:46.970Z,56.25
2023-03-02T04:47:15.392Z,62.78
2023-03-02T04:49:43.438Z,57.33
2023-03-02T04:52:13.492Z,64.05
2023-03-02T04:54:41.643Z,52.63
2023-03-02T04:57:09.999Z,61.72
2023-03-02T04:59:38.503Z,61.95
2023-03-02T05:02:06.913Z,61.55
2023-03-02T05:04:35.445Z,50.22
2023-03-02T05:07:03.740Z,53.13
2023-03-02T05:09:33.595Z,68.57
2023-03-02T05:12:02.353Z,69.60
2023-03-02T05:14:31.003Z,66.15
2023-03-02T05:16:59.768Z,64.20
2023-03-02T05:19:28.271Z,60.38
2023-03-02T05:21:57.263Z,54.60
2023-03-02T05:24:25.377Z,53.88
2023-03-02T05:26:54.933Z,60.80
2023-03-02T05:29:23.570Z,53.25
2023-03-02T05:31:52.329Z,51.00
2023-03-02T05:34:21.115Z,62.47
2023-03-02T05:36:49.330Z,57.65
2023-03-02T05:39:17.450Z,64.60
2023-03-02T05:41:45.747Z,67.15
2023-03-02T05:44:15.156Z,55.50
2023-03-02T05:46:43.464Z,53.03
2023-03-02T05:49:11.691Z,66.18
2023-03-02T05:51:39.712Z,59.72
2023-03-02T05:54:07.932Z,53.97
2023-03-02T05:56:36.076Z,71.85
2023-03-02T05:59:04.226Z,66.68
2023-03-02T06:01:35.596Z,61.13
2023-03-02T06:04:04.308Z,61.13
2023-03-02T06:06:34.117Z,60.83
2023-03-02T06:09:02.975Z,48.63
2023-03-02T06:11:31.619Z,58.60
2023-03-02T06:13:59.640Z,69.93
2023-03-02T06:16:27.653Z,58.40
2023-03-02T06:18:57.328Z,60.70
2023-03-02T06:21:25.539Z,60.05
2023-03-02T06:23:53.880Z,59.83
2023-03-02T06:26:22.197Z,72.75
2023-03-02T06:28:53.160Z,71.63
2023-03-02T06:31:22.173Z,76.00
2023-03-02T06:33:50.564Z,60.78
2023-03-02T06:36:20.386Z,57.42
2023-03-02T06:38:48.725Z,63.97
2023-03-02T06:41:17.145Z,67.72
2023-03-02T06:43:45.550Z,62.05
2023-03-02T06:46:13.982Z,77.03
2023-03-02T06:48:42.162Z,81.05
2023-03-02T06:51:10.193Z,67.75
2023-03-02T06:53:40.117Z,55.83
2023-03-02T06:56:09.176Z,86.15
2023-03-02T06:58:38.478Z,64.68
2023-03-02T07:01:08.091Z,59.90
2023-03-02T07:03:37.043Z,80.20
2023-03-02T07:06:05.651Z,103.22
2023-03-02T07:08:34.563Z,79.15
2023-03-02T07:11:07.744Z,83.18
2023-03-02T07:13:38.073Z,73.72
2023-03-02T07:16:10.232Z,86.32
2023-03-02T07:18:38.436Z,78.20
2023-03-02T07:21:07.866Z,85.65
2023-03-02T07:23:36.006Z,81.65
2023-03-02T07:26:08.642Z,104.30
2023-03-02T07:28:40.340Z,102.15
2023-03-02T07:31:09.274Z,113.45
2023-03-02T07:33:37.943Z,124.15
2023-03-02T07:36:07.549Z,115.55
2023-03-02T07:38:35.633Z,99.85
2023-03-02T07:41:07.769Z,86.70
2023-03-02T07:43:36.800Z,90.97
2023-03-02T07:46:07.560Z,87.28
2023-03-02T07:48:36.728Z,88.22
2023-03-02T07:51:06.610Z,92.60
2023-03-02T07:53:34.682Z,89.25
2023-03-02T07:56:09.120Z,90.25
2023-03-02T07:58:37.798Z,71.72
2023-03-02T08:01:07.700Z,83.40
2023-03-02T08:03:35.741Z,64.45
2023-03-02T08:06:07.097Z,63.78
2023-03-02T08:08:35.951Z,60.88
2023-03-02T08:11:08.563Z,60.58
2023-03-02T08:13:37.324Z,56.58
2023-03-02T08:16:09.727Z,55.78
2023-03-02T08:18:39.107Z,57.92
2023-03-02T08:21:13.086Z,66.75
2023-03-02T08:23:41.525Z,57.03
2023-03-02T08:26:13.173Z,64.05
2023-03-02T08:28:42.904Z,59.75
2023-03-02T08:31:13.002Z,56.28
2023-03-02T08:33:41.552Z,79.05
2023-03-02T08:36:13.808Z,63.97
2023-03-02T08:38:41.893Z,69.55
2023-03-02T08:41:13.157Z,57.15
2023-03-02T08:43:41.313Z,68.57
2023-03-02T08:46:09.861Z,66.00
2023-03-02T08:48:39.703Z,60.95
2023-03-02T08:51:09.400Z,52.47
2023-03-02T08:53:40.710Z,60.55
2023-03-02T08:56:16.988Z,61.13
2023-03-02T08:58:45.272Z,57.30
2023-03-02T09:01:18.504Z,59.72
2023-03-02T09:03:48.852Z,59.53
2023-03-02T09:06:17.379Z,49.17
2023-03-02T09:08:46.296Z,57.20
2023-03-02T09:11:14.731Z,47.78
2023-03-02T09:13:43.339Z,51.47
2023-03-02T09:16:12.396Z,35.47
2023-03-02T09:18:40.932Z,46.92
2023-03-02T09:21:11.888Z,39.45
2023-03-02T09:23:40.145Z,41.13
2023-03-02T09:26:08.587Z,38.20
2023-03-02T09:28:38.358Z,31.67
2023-03-02T09:31:08.459Z,38.45
2023-03-02T09:33:37.464Z,47.70
2023-03-02T09:36:12.947Z,39.97
2023-03-02T09:38:41.066Z,37.05
2023-03-02T09:41:36.128Z,35.45
2023-03-02T09:44:17.919Z,42.90
2023-03-02T09:46:51.253Z,29.73
2023-03-02T09:49:32.775Z,31.30
2023-03-02T09:52:11.956Z,35.40
2023-03-02T09:54:41.986Z,31.00
2023-03-02T09:57:22.108Z,29.35
2023-03-02T09:59:55.377Z,27.85
2023-03-02T10:02:29.514Z,31.83
2023-03-02T10:05:00.827Z,34.50
2023-03-02T10:07:32.457Z,30.52
2023-03-02T10:10:05.685Z,38.50
2023-03-02T10:12:52.812Z,39.28
2023-03-02T10:15:27.545Z,34.13
2023-03-02T10:18:02.277Z,38.75
2023-03-02T10:20:35.992Z,41.95
2023-03-02T10:23:27.705Z,39.28
2023-03-02T10:26:02.303Z,42.38
2023-03-02T10:28:36.932Z,40.80
2023-03-02T10:31:10.932Z,46.35
2023-03-02T10:33:42.172Z,47.58
2023-03-02T10:36:22.932Z,48.53
2023-03-02T10:38:53.045Z,49.47
2023-03-02T10:41:26.424Z,49.67
2023-03-02T10:44:00.736Z,44.70
2023-03-02T10:46:41.290Z,45.42
2023-03-02T10:49:25.576Z,45.33
2023-03-02T10:51:59.184Z,43.35
2023-03-02T10:54:30.173Z,42.05
2023-03-02T10:57:01.221Z,46.05
2023-03-02T10:59:43.445Z,39.53
2023-03-02T11:02:18.574Z,48.75
2023-03-02T11:04:47.389Z,46.50
2023-03-02T11:07:18.997Z,44.95
2023-03-02T11:09:59.883Z,46.55
2023-03-02T11:12:27.953Z,41.55
2023-03-02T11:15:19.817Z,42.17
2023-03-02T11:17:51.890Z,41.33
2023-03-02T11:20:25.335Z,40.67
2023-03-02T11:23:03.946Z,38.33
2023-03-02T11:26:01.146Z,48.53
2023-03-02T11:28:47.108Z,37.22
2023-03-02T11:31:24.923Z,36.00
2023-03-02T11:34:15.649Z,41.88
2023-03-02T11:36:53.848Z,42.22
2023-03-02T11:39:30.640Z,42.50
2023-03-02T11:42:00.360Z,52.78
2023-03-02T11:44:29.918Z,41.58
2023-03-02T11:47:02.982Z,51.17
2023-03-02T11:49:40.818Z,33.35
2023-03-02T11:52:19.421Z,39.00
2023-03-02T11:54:53.831Z,35.70
2023-03-02T11:57:29.232Z,44.13
2023-03-02T11:59:58.933Z,31.90
2023-03-02T12:02:28.562Z,34.55
2023-03-02T12:05:04.921Z,39.78
2023-03-02T12:07:33.557Z,32.75
2023-03-02T12:10:05.259Z,49.95
2023-03-02T12:12:42.780Z,52.67
2023-03-02T12:15:45.471Z,43.67
2023-03-02T12:18:28.790Z,58.17
2023-03-02T12:21:03.179Z,38.45
2023-03-02T12:24:00.789Z,32.67
2023-03-02T12:26:34.065Z,35.30
2023-03-02T12:29:08.308Z,38.90
2023-03-02T12:31:44.632Z,45.35
2023-03-02T12:34:35.568Z,38.90
2023-03-02T12:37:09.387Z,33.92
2023-03-02T12:40:12.512Z,37.55
2023-03-02T12:42:51.158Z,35.00
2023-03-02T12:45:36.118Z,29.98
2023-03-02T12:48:11.585Z,33.97
2023-03-02T12:50:41.050Z,28.45
2023-03-02T12:53:19.582Z,32.72
2023-03-02T12:55:48.033Z,30.23
2023-03-02T12:58:19.546Z,34.03
2023-03-02T13:00:54.760Z,34.88
2023-03-02T13:03:23.269Z,34.55
2023-03-02T13:05:51.572Z,34.85
2023-03-02T13:08:24.332Z,32.85
2023-03-02T13:10:54.700Z,36.30
2023-03-02T13:13:25.229Z,39.95
2023-03-02T13:15:58.438Z,34.88
2023-03-02T13:18:32.107Z,30.88
2023-03-02T13:21:01.696Z,40.03
2023-03-02T13:23:32.075Z,39.67
2023-03-02T13:26:02.098Z,33.35
2023-03-02T13:28:31.962Z,33.90
2023-03-02T13:31:04.887Z,42.85
2023-03-02T13:33:36.145Z,43.35
2023-03-02T13:36:04.552Z,31.73
2023-03-02T13:38:36.718Z,36.33
2023-03-02T13:41:05.617Z,34.80
2023-03-02T13:43:39.195Z,41.50
2023-03-02T13:46:28.710Z,37.00
2023-03-02T13:49:13.715Z,34.67
2023-03-02T13:51:45.458Z,39.90
2023-03-02T13:54:22.312Z,38.80
2023-03-02T13:56:53.716Z,36.10
2023-03-02T13:59:23.458Z,29.55
2023-03-02T14:01:53.280Z,32.17
2023-03-02T14:04:23.982Z,43.13
2023-03-02T14:06:53.022Z,42.78
2023-03-02T14:09:21.932Z,35.58
2023-03-02T14:11:53.575Z,35.67
2023-03-02T14:14:24.630Z,31.15
2023-03-02T14:16:54.663Z,35.50
2023-03-02T14:19:22.866Z,32.60
2023-03-02T14:21:51.045Z,36.03
2023-03-02T14:24:19.351Z,34.45
2023-03-02T14:26:49.813Z,31.38
2023-03-02T14:29:26.764Z,34.00
2023-03-02T14:31:56.946Z,40.65
2023-03-02T14:34:25.262Z,29.25
2023-03-02T14:36:55.634Z,34.13
2023-03-02T14:39:29.800Z,37.15
2023-03-02T14:41:58.524Z,32.47
2023-03-02T14:44:27.001Z,30.55
2023-03-02T14:46:57.607Z,31.20
2023-03-02T14:49:26.368Z,23.42
2023-03-02T14:52:01.762Z,27.30
2023-03-02T14:54:37.527Z,26.13
2023-03-02T14:57:06.410Z,30.92
2023-03-02T14:59:34.559Z,27.02
2023-03-02T15:02:19.018Z,22.63
2023-03-02T15:04:56.043Z,25.55
2023-03-02T15:07:26.366Z,27.27
2023-03-02T15:09:55.660Z,30.58
2023-03-02T15:12:24.072Z,26.27
2023-03-02T15:14:52.261Z,25.48
2023-03-02T15:17:22.073Z,30.63
2023-03-02T15:19:50.267Z,28.13
2023-03-02T15:22:18.611Z,27.25
2023-03-02T15:24:46.908Z,28.08
2023-03-02T15:27:15.846Z,29.65
2023-03-02T15:29:45.955Z,33.15
2023-03-02T15:32:14.339Z,29.00
2023-03-02T15:34:45.344Z,30.67
2023-03-02T15:37:13.807Z,30.48
2023-03-02T15:39:42.251Z,26.08
2023-03-02T15:42:12.636Z,30.92
2023-03-02T15:44:42.267Z,36.05
2023-03-02T15:47:12.827Z,29.85
2023-03-02T15:49:41.080Z,33.13
2023-03-02T15:52:12.450Z,30.08
2023-03-02T15:54:40.877Z,29.13
2023-03-02T15:57:10.240Z,36.05
2023-03-02T15:59:38.686Z,28.08
2023-03-02T16:02:09.321Z,51.25
2023-03-02T16:04:37.995Z,27.05
2023-03-02T16:07:06.439Z,29.27
2023-03-02T16:09:35.874Z,27.67
2023-03-02T16:12:04.242Z,30.33
2023-03-02T16:14:32.339Z,26.77
2023-03-02T16:17:00.722Z,27.83
2023-03-02T16:19:30.450Z,32.22
2023-03-02T16:21:58.752Z,30.00
2023-03-02T16:24:26.954Z,32.90
2023-03-02T16:26:56.771Z,41.38
2023-03-02T16:29:25.271Z,43.55
2023-03-02T16:31:53.807Z,44.55
2023-03-02T16:34:22.426Z,35.80
2023-03-02T16:36:50.816Z,33.80
2023-03-02T16:39:19.267Z,33.67
2023-03-02T16:41:47.906Z,34.80
2023-03-02T16:44:18.226Z,27.13
2023-03-02T16:46:47.133Z,26.08
2023-03-02T16:49:15.425Z,25.23
2023-03-02T16:51:44.225Z,25.45
2023-03-02T16:54:16.983Z,23.83
2023-03-02T16:56:47.477Z,30.13
2023-03-02T16:59:17.765Z,25.45
2023-03-02T17:01:46.084Z,28.00
2023-03-02T17:04:14.273Z,32.60
2023-03-02T17:06:59.562Z,25.92
2023-03-02T17:09:29.092Z,22.23
2023-03-02T17:11:57.286Z,26.17
2023-03-02T17:14:27.188Z,39.67
2023-03-02T17:16:56.480Z,32.17
2023-03-02T17:19:26.831Z,30.38
2023-03-02T17:21:57.555Z,25.52
2023-03-02T17:24:25.806Z,36.13
2023-03-02T17:26:54.181Z,26.80
2023-03-02T17:29:23.068Z,29.42
2023-03-02T17:31:52.498Z,29.80
2023-03-02T17:34:20.899Z,24.80
2023-03-02T17:36:49.187Z,24.08
2023-03-02T17:39:17.125Z,25.58
2023-03-02T17:41:45.585Z,28.75
2023-03-02T17:44:14.080Z,44.08
2023-03-02T17:46:44.050Z,26.92
2023-03-02T17:49:14.177Z,32.40
2023-03-02T17:51:42.234Z,24.25
2023-03-02T17:54:10.369Z,22.05
2023-03-02T17:56:38.624Z,30.75
2023-03-02T17:59:07.475Z,23.60
2023-03-02T18:01:36.189Z,30.85
2023-03-02T18:04:05.014Z,40.85
2023-03-02T18:06:34.941Z,30.67
2023-03-02T18:09:03.209Z,24.80
2023-03-02T18:11:31.515Z,29.50
2023-03-02T18:13:59.832Z,33.15
2023-03-02T18:16:29.473Z,31.75
2023-03-02T18:18:58.521Z,29.58
2023-03-02T18:21:27.002Z,26.15
2023-03-02T18:23:56.674Z,30.08
2023-03-02T18:26:25.278Z,30.38
2023-03-02T18:28:53.510Z,40.88
2023-03-02T18:31:22.175Z,63.70
2023-03-02T18:33:50.863Z,104.35
2023-03-02T18:36:19.665Z,62.58
2023-03-02T18:38:47.751Z,38.65
2023-03-02T18:41:17.220Z,30.55
2023-03-02T18:43:45.459Z,31.48
2023-03-02T18:46:23.417Z,29.55
2023-03-02T18:48:52.989Z,26.02
2023-03-02T18:51:22.889Z,24.73
2023-03-02T18:53:52.151Z,23.63
2023-03-02T18:56:22.066Z,26.38
2023-03-02T18:58:51.993Z,31.83
2023-03-02T19:01:20.756Z,36.60
2023-03-02T19:03:49.368Z,37.42
2023-03-02T19:06:18.008Z,34.17
2023-03-02T19:08:48.068Z,38.10
2023-03-02T19:11:16.207Z,48.20
2023-03-02T19:13:45.992Z,45.90
2023-03-02T19:16:14.211Z,29.02
2023-03-02T19:18:42.502Z,27.90
2023-03-02T19:21:10.763Z,40.97
2023-03-02T19:23:38.932Z,35.90
2023-03-02T19:26:08.530Z,44.05
2023-03-02T19:28:38.514Z,48.42
2023-03-02T19:31:11.562Z,35.45
2023-03-02T19:33:40.070Z,34.42
2023-03-02T19:36:09.551Z,28.13
2023-03-02T19:38:41.602Z,35.17
2023-03-02T19:41:12.330Z,25.38
2023-03-02T19:43:42.022Z,32.15
2023-03-02T19:46:11.761Z,34.90
2023-03-02T19:48:40.461Z,37.38
2023-03-02T19:51:09.459Z,32.40
2023-03-02T19:53:40.299Z,29.95
2023-03-02T19:56:12.813Z,41.58
2023-03-02T19:58:47.395Z,40.13
2023-03-02T20:01:21.647Z,35.55
2023-03-02T20:03:49.995Z,39.08
2023-03-02T20:06:18.007Z,42.47
2023-03-02T20:08:48.099Z,44.63
2023-03-02T20:11:16.834Z,41.15
2023-03-02T20:13:45.488Z,38.05
2023-03-02T20:16:23.029Z,39.78
2023-03-02T20:18:51.522Z,36.65
2023-03-02T20:21:21.383Z,41.53
2023-03-02T20:23:50.011Z,37.25
2023-03-02T20:26:18.235Z,45.45
2023-03-02T20:28:49.577Z,40.85
2023-03-02T20:31:19.665Z,44.15
2023-03-02T20:33:50.963Z,43.92
2023-03-02T20:36:23.711Z,50.67
2023-03-02T20:38:57.912Z,47.83
2023-03-02T20:41:26.135Z,53.70
2023-03-02T20:43:54.530Z,58.25
2023-03-02T20:46:27.766Z,60.80
2023-03-02T20:48:56.373Z,64.82
2023-03-02T20:51:25.880Z,52.15
2023-03-02T20:53:57.219Z,53.00
2023-03-02T20:56:25.925Z,59.80
2023-03-02T20:58:54.189Z,64.85
2023-03-02T21:01:25.439Z,59.35
2023-03-02T21:03:54.130Z,69.32
2023-03-02T21:06:22.689Z,58.70
2023-03-02T21:08:52.526Z,60.72
2023-03-02T21:11:23.425Z,63.90
2023-03-02T21:13:51.551Z,85.30
2023-03-02T21:16:23.065Z,69.43
2023-03-02T21:18:54.845Z,54.95
2023-03-02T21:21:35.660Z,60.28
2023-03-02T21:24:09.131Z,58.50
2023-03-02T21:26:37.589Z,56.03
2023-03-02T21:29:06.585Z,55.75
2023-03-02T21:31:34.688Z,66.55
2023-03-02T21:34:04.132Z,67.82
2023-03-02T21:36:33.132Z,61.47
2023-03-02T21:39:01.403Z,69.78
2023-03-02T21:41:29.900Z,70.65
2023-03-02T21:43:58.203Z,72.65
2023-03-02T21:46:26.267Z,72.07
2023-03-02T21:48:55.074Z,67.05
2023-03-02T21:51:24.572Z,59.67
2023-03-02T21:53:53.616Z,68.38
2023-03-02T21:56:24.079Z,72.35
2023-03-02T21:58:54.856Z,68.22
2023-03-02T22:01:23.806Z,63.72
2023-03-02T22:03:52.218Z,55.25
2023-03-02T22:06:22.727Z,62.95
2023-03-02T22:08:52.638Z,61.33
2023-03-02T22:11:22.786Z,63.22
2023-03-02T22:13:53.145Z,66.63
2023-03-02T22:16:22.900Z,66.18
2023-03-02T22:18:55.563Z,58.97
2023-03-02T22:21:31.387Z,76.70
2023-03-02T22:24:18.878Z,73.30
2023-03-02T22:26:49.145Z,61.45
2023-03-02T22:29:19.296Z,56.20
2023-03-02T22:31:49.653Z,65.55
2023-03-02T22:34:23.495Z,68.60
2023-03-02T22:36:52.471Z,62.25
2023-03-02T22:39:29.256Z,58.60
2023-03-02T22:42:06.345Z,62.60
2023-03-02T22:44:34.768Z,71.18
2023-03-02T22:47:03.653Z,67.85
2023-03-02T22:49:32.234Z,89.32
2023-03-02T22:52:02.386Z,87.25
2023-03-02T22:54:38.492Z,70.78
2023-03-02T22:57:21.255Z,62.30
2023-03-02T22:59:50.016Z,65.50
2023-03-02T23:02:22.378Z,73.60
2023-03-02T23:04:50.954Z,81.15
2023-03-02T23:07:20.854Z,79.32
2023-03-02T23:09:50.611Z,69.05
2023-03-02T23:12:23.345Z,74.97
2023-03-02T23:14:53.609Z,73.03
2023-03-02T23:17:24.629Z,82.80
2023-03-02T23:19:52.893Z,89.82
2023-03-02T23:22:21.362Z,77.20
2023-03-02T23:24:50.836Z,83.85
2023-03-02T23:27:19.708Z,89.88
2023-03-02T23:29:48.284Z,79.18
2023-03-02T23:32:18.368Z,76.85
2023-03-02T23:34:47.802Z,88.50
2023-03-02T23:37:16.120Z,71.95
2023-03-02T23:39:46.139Z,95.88
2023-03-02T23:42:16.206Z,80.28
2023-03-02T23:44:44.709Z,85.72
2023-03-02T23:47:13.065Z,79.70
2023-03-02T23:49:41.072Z,93.90
2023-03-02T23:52:09.038Z,79.13
2023-03-02T23:54:37.524Z,93.55
2023-03-02T23:57:05.500Z,87.53
2023-03-02T23:59:35.092Z,77.53
